Time;durP1;ratioP1;P1;durP2;ratioP2;P2;SDS_P1;SDS_P2;PMS_P1;PMS_P2;Temp;Humidity;BMP_temperature;BMP_pressure;BME280_temperature;BME280_humidity;BME280_pressure;Samples;Min_cycle;Max_cycle;Signal;HPM_P1;HPM_P2
2021/03/27 00:02:36;;;;;;;15.00;7.13;;;5.10;48.10;;;;;;4313797;33;20070;-34
2021/03/27 00:05:15;;;;;;;17.17;8.10;;;5.00;48.20;;;;;;4314169;33;20633;-35
2021/03/27 00:08:06;;;;;;;18.40;7.87;;;5.00;48.40;;;;;;4326417;33;20067;-35
2021/03/27 00:11:01;;;;;;;20.90;9.20;;;4.90;48.70;;;;;;4322545;33;20500;-35
2021/03/27 00:13:57;;;;;;;21.97;9.93;;;4.90;49.00;;;;;;4304033;33;20553;-35
2021/03/27 00:16:53;;;;;;;20.00;9.33;;;4.80;49.10;;;;;;4314329;33;20093;-36
2021/03/27 00:19:43;;;;;;;17.80;8.70;;;4.70;49.30;;;;;;4343182;32;20102;-34
2021/03/27 00:22:17;;;;;;;23.30;8.40;;;4.70;49.70;;;;;;4341940;33;20074;-35
2021/03/27 00:25:00;;;;;;;15.40;7.70;;;4.60;49.90;;;;;;4316074;33;20086;-34
2021/03/27 00:27:37;;;;;;;18.07;8.03;;;4.60;50.10;;;;;;4340880;33;20094;-34
2021/03/27 00:30:18;;;;;;;20.77;8.23;;;4.50;50.20;;;;;;4328380;33;20079;-35
2021/03/27 00:32:48;;;;;;;15.20;7.20;;;4.50;50.30;;;;;;4328668;33;20087;-34
2021/03/27 00:35:35;;;;;;;11.50;6.00;;;4.50;50.40;;;;;;4316378;33;20055;-34
2021/03/27 00:38:06;;;;;;;15.43;7.87;;;4.50;50.50;;;;;;4316454;33;20531;-34
2021/03/27 00:40:39;;;;;;;14.57;6.47;;;4.50;50.70;;;;;;4328439;33;20513;-34
2021/03/27 00:43:12;;;;;;;13.83;7.30;;;4.50;50.90;;;;;;4340599;33;20444;-34
2021/03/27 00:45:43;;;;;;;13.73;5.60;;;4.50;50.90;;;;;;4328476;33;20065;-35
2021/03/27 00:48:26;;;;;;;16.40;8.33;;;4.40;51.00;;;;;;4340402;33;20094;-34
2021/03/27 00:50:58;;;;;;;17.10;8.20;;;4.40;51.10;;;;;;4328634;33;20077;-35
2021/03/27 00:53:34;;;;;;;17.53;7.37;;;4.40;51.10;;;;;;4340555;33;20082;-36
2021/03/27 00:56:22;;;;;;;15.73;7.07;;;4.50;51.10;;;;;;4340277;33;20109;-35
2021/03/27 00:58:57;;;;;;;17.30;7.77;;;4.50;51.00;;;;;;4328303;33;20069;-35
2021/03/27 01:01:26;;;;;;;18.27;7.37;;;4.40;51.10;;;;;;4317186;33;20067;-35
2021/03/27 01:03:57;;;;;;;11.63;4.07;;;4.40;51.10;;;;;;4329536;33;20078;-35
2021/03/27 01:06:58;;;;;;;15.43;6.37;;;4.40;51.10;;;;;;4318158;33;20078;-35
2021/03/27 01:09:35;;;;;;;20.60;7.80;;;4.40;51.10;;;;;;4342077;32;20070;-35
2021/03/27 01:12:31;;;;;;;19.93;9.57;;;4.40;51.10;;;;;;4321286;33;20091;-35
2021/03/27 01:15:01;;;;;;;14.83;8.70;;;4.40;51.10;;;;;;4344895;33;20178;-34
2021/03/27 01:17:31;;;;;;;15.97;6.17;;;4.30;51.10;;;;;;4346053;32;20078;-36
2021/03/27 01:20:23;;;;;;;13.20;6.07;;;4.30;51.10;;;;;;4332270;33;20518;-36
2021/03/27 01:22:50;;;;;;;14.30;7.30;;;4.30;51.10;;;;;;4333317;33;20432;-36
2021/03/27 01:25:30;;;;;;;16.43;7.40;;;4.20;51.20;;;;;;4344439;33;20102;-34
2021/03/27 01:28:19;;;;;;;16.27;6.73;;;4.20;51.40;;;;;;4332042;33;20523;-34
2021/03/27 01:31:04;;;;;;;16.67;8.13;;;4.20;51.60;;;;;;4344605;33;20086;-34
2021/03/27 01:33:36;;;;;;;14.23;6.07;;;4.10;51.60;;;;;;4345240;32;20093;-34
2021/03/27 01:36:21;;;;;;;12.90;6.53;;;4.10;51.80;;;;;;4344048;33;20515;-34
2021/03/27 01:38:50;;;;;;;14.82;7.70;;;4.10;51.90;;;;;;4343996;33;20171;-34
2021/03/27 01:41:33;;;;;;;14.97;7.83;;;4.00;52.00;;;;;;4345166;32;20615;-35
2021/03/27 01:44:08;;;;;;;15.70;7.37;;;4.00;52.10;;;;;;4332113;33;20059;-35
2021/03/27 01:47:23;;;;;;;16.77;7.53;;;3.90;52.20;;;;;;4343879;33;20059;-34
2021/03/27 01:50:26;;;;;;;18.97;9.57;;;3.90;52.30;;;;;;4344902;32;20055;-35
2021/03/27 01:53:27;;;;;;;16.43;6.43;;;3.90;52.40;;;;;;4344848;32;20086;-34
2021/03/27 01:56:20;;;;;;;16.40;7.47;;;3.80;52.60;;;;;;4343681;33;20128;-35
2021/03/27 01:59:23;;;;;;;11.47;6.50;;;3.80;52.60;;;;;;4343695;33;20058;-34
2021/03/27 02:01:58;;;;;;;19.07;7.47;;;3.90;52.70;;;;;;4343856;33;20060;-35
2021/03/27 02:05:16;;;;;;;15.55;6.35;;;3.90;52.80;;;;;;4344243;32;20074;-34
2021/03/27 02:08:18;;;;;;;13.97;6.73;;;3.90;52.70;;;;;;4344095;33;20251;-36
2021/03/27 02:11:21;;;;;;;15.10;8.27;;;3.90;52.80;;;;;;4331580;32;20086;-35
2021/03/27 02:14:09;;;;;;;19.50;6.37;;;3.90;52.90;;;;;;4332857;33;20087;-36
2021/03/27 02:16:45;;;;;;;11.60;5.33;;;3.90;52.90;;;;;;4344362;32;20143;-35
2021/03/27 02:19:39;;;;;;;14.23;5.37;;;3.90;53.00;;;;;;4331411;32;20063;-35
2021/03/27 02:22:31;;;;;;;13.77;5.60;;;3.90;52.70;;;;;;4330977;33;20061;-35
2021/03/27 02:25:45;;;;;;;13.63;6.57;;;3.90;52.70;;;;;;4343121;33;20552;-37
2021/03/27 02:28:54;;;;;;;9.60;4.03;;;4.00;52.70;;;;;;4331537;33;20090;-35
2021/03/27 02:31:27;;;;;;;16.80;7.83;;;3.90;52.80;;;;;;4344542;32;20070;-34
2021/03/27 02:34:29;;;;;;;10.37;4.70;;;3.90;53.00;;;;;;4344481;33;20062;-34
2021/03/27 02:37:14;;;;;;;14.33;6.60;;;3.90;53.00;;;;;;4343120;33;20163;-40
2021/03/27 02:40:02;;;;;;;13.18;6.22;;;4.00;53.20;;;;;;4343543;33;20475;-34
2021/03/27 02:42:52;;;;;;;9.10;3.90;;;4.00;53.20;;;;;;4315252;33;20091;-36
2021/03/27 02:45:25;;;;;;;15.53;5.27;;;4.10;53.20;;;;;;4315389;33;20567;-36
2021/03/27 02:48:29;;;;;;;13.67;5.40;;;4.10;53.20;;;;;;4321325;33;20620;-33
2021/03/27 02:51:06;;;;;;;12.30;5.13;;;4.10;53.10;;;;;;4329910;33;20074;-35
2021/03/27 02:54:07;;;;;;;9.80;4.53;;;4.10;53.10;;;;;;4317507;33;20142;-35
2021/03/27 02:57:03;;;;;;;10.13;4.40;;;4.10;53.20;;;;;;4327095;33;20159;-35
2021/03/27 03:00:07;;;;;;;8.50;4.35;;;4.20;53.20;;;;;;4326993;33;20079;-36
2021/03/27 03:02:44;;;;;;;12.17;5.70;;;4.20;53.20;;;;;;4324157;33;20077;-35
2021/03/27 03:05:16;;;;;;;15.07;6.33;;;4.30;53.10;;;;;;4327260;33;20066;-34
2021/03/27 03:08:06;;;;;;;12.27;6.90;;;4.30;53.10;;;;;;4326924;33;20162;-35
2021/03/27 03:10:35;;;;;;;11.63;6.33;;;4.30;52.90;;;;;;4326785;33;20120;-35
2021/03/27 03:13:24;;;;;;;16.90;9.10;;;4.40;53.00;;;;;;4331365;33;20071;-33
2021/03/27 03:16:28;;;;;;;13.77;6.93;;;4.40;52.90;;;;;;4341597;33;20070;-35
2021/03/27 03:19:06;;;;;;;8.43;4.27;;;4.40;52.90;;;;;;4331899;33;20148;-36
2021/03/27 03:21:37;;;;;;;13.93;5.20;;;4.50;52.80;;;;;;4316951;33;20071;-36
2021/03/27 03:24:43;;;;;;;10.70;4.50;;;4.50;52.80;;;;;;4341294;33;20594;-35
2021/03/27 03:27:21;;;;;;;9.35;3.35;;;4.50;52.70;;;;;;4341382;33;20082;-36
2021/03/27 03:29:57;;;;;;;11.23;5.23;;;4.60;52.70;;;;;;4329317;33;20078;-36
2021/03/27 03:32:55;;;;;;;10.50;5.63;;;4.70;52.60;;;;;;4329264;33;20093;-37
2021/03/27 03:36:09;;;;;;;10.03;4.20;;;4.80;52.50;;;;;;4349401;32;20067;-38
2021/03/27 03:38:53;;;;;;;8.10;4.03;;;4.90;52.40;;;;;;4346686;32;20067;-34
2021/03/27 03:41:53;;;;;;;11.40;4.80;;;5.10;52.20;;;;;;4345571;32;20114;-36
2021/03/27 03:45:05;;;;;;;8.97;4.13;;;5.20;51.80;;;;;;4344791;32;20062;-37
2021/03/27 03:47:51;;;;;;;7.47;4.23;;;5.30;51.30;;;;;;4353350;32;20171;-36
2021/03/27 03:50:41;;;;;;;9.67;3.33;;;5.50;51.10;;;;;;4330391;33;20066;-36
2021/03/27 03:53:30;;;;;;;10.07;5.13;;;5.60;50.80;;;;;;4342403;33;20074;-37
2021/03/27 03:56:04;;;;;;;7.93;4.60;;;5.70;50.50;;;;;;4343319;32;20065;-36
2021/03/27 03:59:10;;;;;;;11.05;3.53;;;5.80;50.20;;;;;;4343745;33;20507;-36
2021/03/27 04:01:47;;;;;;;4.57;2.45;;;5.90;50.00;;;;;;4319038;33;20508;-36
2021/03/27 04:04:21;;;;;;;9.27;3.73;;;5.90;49.70;;;;;;4342122;33;20051;-36
2021/03/27 04:07:13;;;;;;;8.60;4.43;;;6.00;49.60;;;;;;4318861;33;20087;-37
2021/03/27 04:10:04;;;;;;;14.57;6.57;;;6.10;49.40;;;;;;4341200;33;20196;-37
2021/03/27 04:12:41;;;;;;;3.47;1.90;;;6.20;49.00;;;;;;4336225;32;20443;-38
2021/03/27 04:16:13;;;;;;;7.33;3.87;;;6.30;49.00;;;;;;4343241;32;20063;-38
2021/03/27 04:19:10;;;;;;;5.97;3.00;;;6.30;48.70;;;;;;4342573;33;20149;-38
2021/03/27 04:21:42;;;;;;;7.20;2.73;;;6.30;48.70;;;;;;4337920;33;20070;-37
2021/03/27 04:24:24;;;;;;;8.20;3.93;;;6.40;48.80;;;;;;4341721;33;20614;-37
2021/03/27 04:26:57;;;;;;;8.50;4.50;;;6.50;48.70;;;;;;4341938;33;20058;-37
2021/03/27 04:29:43;;;;;;;5.10;2.37;;;6.60;48.50;;;;;;4317629;33;20100;-39
2021/03/27 04:32:35;;;;;;;7.97;4.03;;;6.70;48.10;;;;;;4330910;33;20066;-38
2021/03/27 04:35:12;;;;;;;8.23;2.83;;;6.90;48.00;;;;;;4307715;33;20628;-37
2021/03/27 04:37:47;;;;;;;11.30;3.17;;;7.00;47.70;;;;;;4329741;33;20166;-36
2021/03/27 04:40:19;;;;;;;9.63;3.28;;;7.20;47.60;;;;;;4342045;33;20059;-37
2021/03/27 04:43:13;;;;;;;7.97;3.90;;;7.40;47.50;;;;;;4342972;32;20510;-36
2021/03/27 04:46:19;;;;;;;10.10;2.53;;;7.60;46.90;;;;;;4344935;33;20067;-35
2021/03/27 04:49:26;;;;;;;5.47;2.83;;;7.70;46.40;;;;;;4346044;32;20175;-35
2021/03/27 04:52:13;;;;;;;8.07;5.00;;;7.90;46.00;;;;;;4359454;32;20066;-37
2021/03/27 04:55:08;;;;;;;5.90;2.20;;;8.00;46.00;;;;;;4349848;32;20071;-37
2021/03/27 04:58:05;;;;;;;8.63;4.30;;;8.10;45.80;;;;;;4359659;32;20086;-36
2021/03/27 05:00:37;;;;;;;8.00;4.27;;;8.20;45.70;;;;;;4359427;32;20070;-38
2021/03/27 05:03:18;;;;;;;10.40;6.27;;;8.20;45.30;;;;;;4360650;32;20138;-38
2021/03/27 05:05:54;;;;;;;7.13;4.13;;;8.20;45.10;;;;;;4347349;32;20086;-38
2021/03/27 05:09:00;;;;;;;6.33;3.23;;;8.30;45.20;;;;;;4360868;32;20503;-39
2021/03/27 05:11:40;;;;;;;9.68;4.18;;;8.40;45.10;;;;;;4359019;32;20091;-38
2021/03/27 05:14:44;;;;;;;10.20;3.83;;;8.50;45.00;;;;;;4359138;32;20534;-36
2021/03/27 05:17:43;;;;;;;8.47;5.83;;;8.50;44.80;;;;;;4360867;32;20124;-37
2021/03/27 05:20:40;;;;;;;9.00;5.87;;;8.40;44.80;;;;;;4360387;32;20092;-37
2021/03/27 05:23:18;;;;;;;9.30;6.00;;;8.30;44.80;;;;;;4359266;32;20592;-36
2021/03/27 05:26:05;;;;;;;10.77;4.10;;;8.10;45.00;;;;;;4347138;32;20113;-36
2021/03/27 05:29:00;;;;;;;7.93;4.00;;;8.20;45.30;;;;;;4358876;32;20074;-37
2021/03/27 05:31:49;;;;;;;12.97;7.07;;;8.30;45.10;;;;;;4359000;32;20098;-37
2021/03/27 05:34:43;;;;;;;15.37;6.60;;;8.30;45.00;;;;;;4358938;32;20163;-37
2021/03/27 05:37:25;;;;;;;6.17;3.03;;;8.40;45.00;;;;;;4359131;32;20074;-37
2021/03/27 05:40:34;;;;;;;6.00;4.00;;;8.30;45.80;;;;;;4330385;33;20071;-37
2021/03/27 05:43:19;;;;;;;8.27;4.97;;;8.40;45.20;;;;;;4330698;33;20059;-37
2021/03/27 05:46:04;;;;;;;12.35;3.42;;;8.50;44.90;;;;;;4331511;33;20141;-37
2021/03/27 05:49:15;;;;;;;11.60;5.00;;;8.60;44.60;;;;;;4342847;33;20075;-37
2021/03/27 05:52:32;;;;;;;7.03;2.77;;;8.70;44.50;;;;;;4284424;33;20203;-37
2021/03/27 05:55:16;;;;;;;;;;;8.80;44.30;;;;;;4272537;33;20072;-36
2021/03/27 05:58:01;;;;;;;6.23;3.00;;;9.00;44.10;;;;;;4341845;33;20044;-38
2021/03/27 06:00:44;;;;;;;5.80;2.53;;;9.10;44.00;;;;;;4342796;33;20062;-38
2021/03/27 06:03:37;;;;;;;7.40;3.37;;;9.10;43.60;;;;;;4342754;33;20158;-38
2021/03/27 06:06:25;;;;;;;6.50;2.30;;;9.20;43.20;;;;;;4342475;33;20586;-38
2021/03/27 06:09:43;;;;;;;9.73;3.37;;;9.40;43.20;;;;;;4342457;33;20067;-37
2021/03/27 06:12:17;;;;;;;6.00;3.13;;;9.30;42.70;;;;;;4272293;33;20564;-37
2021/03/27 06:15:05;;;;;;;4.22;2.37;;;9.40;42.70;;;;;;4272398;33;20110;-38
2021/03/27 06:17:49;;;;;;;4.00;1.62;;;9.40;42.70;;;;;;4327115;33;20067;-38
2021/03/27 06:20:31;;;;;;;5.25;2.03;;;9.50;42.80;;;;;;4343545;33;20090;-38
2021/03/27 06:23:48;;;;;;;8.85;3.85;;;9.50;42.80;;;;;;4331973;33;20460;-37
2021/03/27 06:26:31;;;;;;;6.22;3.03;;;9.60;42.80;;;;;;4343651;33;20063;-36
2021/03/27 06:29:23;;;;;;;4.85;2.25;;;9.60;42.70;;;;;;4330923;33;20480;-37
2021/03/27 06:31:58;;;;;;;4.70;2.45;;;9.70;42.80;;;;;;4342883;33;20248;-38
2021/03/27 06:35:01;;;;;;;4.57;1.77;;;9.80;42.20;;;;;;4344977;32;20074;-36
2021/03/27 06:38:11;;;;;;;10.05;3.58;;;9.90;42.00;;;;;;4344683;32;20082;-39
2021/03/27 06:40:56;;;;;;;8.60;3.17;;;9.90;41.90;;;;;;4342993;33;20527;-37
2021/03/27 06:43:59;;;;;;;3.73;1.80;;;10.00;42.00;;;;;;4344613;32;20069;-38
2021/03/27 06:47:16;;;;;;;6.60;2.53;;;10.00;41.90;;;;;;4344777;33;20062;-38
2021/03/27 06:50:10;;;;;;;13.27;3.35;;;10.10;41.50;;;;;;4320596;33;20132;-37
2021/03/27 06:52:43;;;;;;;11.55;4.03;;;10.20;41.20;;;;;;4312197;33;20513;-37
2021/03/27 06:55:50;;;;;;;6.68;2.80;;;10.20;41.10;;;;;;4288737;33;20552;-38
2021/03/27 06:58:34;;;;;;;6.12;3.75;;;10.20;41.00;;;;;;4312415;33;20609;-38
2021/03/27 07:01:22;;;;;;;8.82;3.40;;;10.30;41.10;;;;;;4312269;33;20062;-38
2021/03/27 07:04:27;;;;;;;7.70;4.03;;;10.30;41.10;;;;;;4312323;33;20080;-37
2021/03/27 07:07:36;;;;;;;13.57;4.70;;;10.30;41.00;;;;;;4311621;33;20151;-38
2021/03/27 07:10:13;;;;;;;4.57;2.87;;;10.30;41.00;;;;;;4312151;33;20071;-37
2021/03/27 07:12:54;;;;;;;3.70;1.95;;;10.30;41.20;;;;;;4288286;33;20067;-38
2021/03/27 07:15:51;;;;;;;5.30;2.00;;;10.40;41.00;;;;;;4300445;33;20087;-39
2021/03/27 07:18:41;;;;;;;11.60;3.72;;;10.40;41.10;;;;;;4312337;33;20100;-38
2021/03/27 07:21:36;;;;;;;10.70;4.18;;;10.50;41.10;;;;;;4300629;33;20504;-37
2021/03/27 07:24:56;;;;;;;4.18;2.22;;;10.70;40.80;;;;;;4332789;33;20519;-37
2021/03/27 07:27:59;;;;;;;6.03;2.35;;;10.80;40.80;;;;;;4342604;33;20628;-38
2021/03/27 07:31:03;;;;;;;13.02;4.12;;;10.80;40.60;;;;;;4342420;32;20051;-37
2021/03/27 07:34:13;;;;;;;10.48;3.65;;;10.80;40.20;;;;;;4332210;33;20086;-38
2021/03/27 07:37:21;;;;;;;6.85;2.72;;;10.90;40.40;;;;;;4342190;33;20066;-37
2021/03/27 07:40:13;;;;;;;7.40;2.17;;;10.90;40.30;;;;;;4343635;33;20086;-42
2021/03/27 07:43:16;;;;;;;8.57;3.72;;;10.90;40.10;;;;;;4343954;33;20092;-37
2021/03/27 07:45:57;;;;;;;7.82;2.85;;;10.80;40.30;;;;;;4344017;33;20062;-38
2021/03/27 07:48:49;;;;;;;3.47;1.45;;;10.80;40.50;;;;;;4351452;32;20075;-38
2021/03/27 07:51:21;;;;;;;10.32;4.30;;;10.80;40.50;;;;;;4357113;32;20519;-38
2021/03/27 07:54:36;;;;;;;5.82;2.90;;;10.90;40.60;;;;;;4357292;32;20059;-38
2021/03/27 07:57:22;;;;;;;6.32;2.62;;;10.80;40.70;;;;;;4344692;32;20077;-37
2021/03/27 07:59:57;;;;;;;;;;;11.00;40.30;;;;;;4357374;32;20094;-38
2021/03/27 08:02:54;;;;;;;7.00;2.25;;;11.10;40.30;;;;;;4357849;32;19996;-37
2021/03/27 08:05:50;;;;;;;6.12;3.53;;;11.20;40.20;;;;;;4340781;33;20071;-37
2021/03/27 08:08:53;;;;;;;;;;;11.20;40.00;;;;;;4341097;33;20113;-38
2021/03/27 08:11:53;;;;;;;5.32;2.90;;;11.30;39.90;;;;;;4340714;33;20354;-38
2021/03/27 08:14:38;;;;;;;4.72;1.37;;;11.40;39.60;;;;;;4341176;33;20470;-38
2021/03/27 08:17:35;;;;;;;8.23;2.28;;;11.60;39.60;;;;;;4340652;33;20082;-38
2021/03/27 08:20:21;;;;;;;4.10;1.80;;;11.70;39.00;;;;;;4341332;33;20079;-39
2021/03/27 08:23:29;;;;;;;8.02;4.07;;;11.90;39.30;;;;;;4328377;33;20109;-38
2021/03/27 08:26:29;;;;;;;7.47;2.80;;;12.00;38.40;;;;;;4340373;33;20088;-39
2021/03/27 08:28:58;;;;;;;5.47;1.92;;;12.10;38.30;;;;;;4340846;33;20170;-37
2021/03/27 08:31:40;;;;;;;7.78;3.15;;;12.20;38.50;;;;;;4328108;33;20187;-38
2021/03/27 08:34:29;;;;;;;9.63;3.53;;;12.20;37.90;;;;;;4340674;33;20074;-38
2021/03/27 08:37:20;;;;;;;4.87;2.58;;;12.30;38.20;;;;;;4340678;33;20085;-39
2021/03/27 08:40:44;;;;;;;9.30;4.90;;;12.40;37.90;;;;;;4329192;33;20079;-37
2021/03/27 08:44:16;;;;;;;6.45;3.42;;;12.50;37.80;;;;;;4305349;33;20075;-39
2021/03/27 08:46:51;;;;;;;6.85;2.28;;;12.60;37.50;;;;;;4254131;33;20087;-39
2021/03/27 08:50:00;;;;;;;8.88;4.70;;;12.70;37.30;;;;;;4293177;33;20166;-39
2021/03/27 08:53:16;;;;;;;12.25;7.10;;;12.80;37.10;;;;;;4296502;33;20064;-38
2021/03/27 08:56:20;;;;;;;12.07;6.50;;;12.90;37.20;;;;;;4296330;33;20149;-39
2021/03/27 08:59:36;;;;;;;10.68;6.00;;;13.10;37.20;;;;;;4263666;33;20082;-39
2021/03/27 09:02:36;;;;;;;15.25;7.30;;;13.20;36.90;;;;;;4296710;33;20759;-39
2021/03/27 09:05:06;;;;;;;11.73;5.45;;;13.30;36.80;;;;;;4296677;33;20103;-36
2021/03/27 09:08:05;;;;;;;3.95;2.00;;;13.40;36.10;;;;;;4296658;33;20074;-39
2021/03/27 09:11:02;;;;;;;2.90;2.08;;;13.50;36.20;;;;;;4299381;33;20052;-38
2021/03/27 09:13:53;;;;;;;2.72;1.60;;;13.60;35.90;;;;;;4324227;33;20486;-38
2021/03/27 09:16:55;;;;;;;6.35;1.92;;;13.70;35.90;;;;;;4342719;32;20147;-39
2021/03/27 09:19:35;;;;;;;7.72;3.17;;;13.70;35.50;;;;;;4341739;33;20086;-38
2021/03/27 09:22:37;;;;;;;6.30;1.80;;;13.80;35.60;;;;;;4341477;33;20066;-39
2021/03/27 09:25:13;;;;;;;7.57;3.90;;;13.90;35.20;;;;;;4341536;33;20138;-38
2021/03/27 09:28:17;;;;;;;5.10;2.05;;;14.10;35.00;;;;;;4341748;33;20134;-39
2021/03/27 09:31:02;;;;;;;13.45;7.07;;;14.10;34.80;;;;;;4327427;33;20168;-38
2021/03/27 09:33:54;;;;;;;;;;;14.30;34.90;;;;;;4316129;33;20093;-40
2021/03/27 09:36:41;;;;;;;7.15;3.58;;;14.40;34.60;;;;;;4328225;33;19966;-39
2021/03/27 09:39:28;;;;;;;5.57;2.78;;;14.40;34.00;;;;;;4328262;33;20079;-40
2021/03/27 09:42:23;;;;;;;8.75;2.85;;;14.40;33.70;;;;;;4327965;33;20078;-39
2021/03/27 09:45:04;;;;;;;5.35;3.00;;;14.30;33.60;;;;;;4328704;33;20086;-38
2021/03/27 09:47:58;;;;;;;6.78;2.47;;;14.40;34.00;;;;;;4316176;33;20581;-39
2021/03/27 09:50:54;;;;;;;7.60;2.85;;;14.40;33.90;;;;;;4315978;33;20059;-37
2021/03/27 09:54:11;;;;;;;4.53;2.53;;;14.40;33.80;;;;;;4315792;33;20245;-38
2021/03/27 09:56:59;;;;;;;7.37;4.45;;;14.50;33.40;;;;;;4305466;33;20086;-39
2021/03/27 10:00:07;;;;;;;8.55;4.05;;;14.50;33.40;;;;;;4305654;33;20074;-39
2021/03/27 10:02:49;;;;;;;2.65;1.25;;;14.40;33.40;;;;;;4338294;33;20063;-37
2021/03/27 10:05:46;;;;;;;6.57;3.35;;;14.40;33.60;;;;;;4343532;33;20074;-38
2021/03/27 10:08:24;;;;;;;8.27;3.60;;;14.40;33.30;;;;;;4343539;33;20079;-37
2021/03/27 10:11:04;;;;;;;5.70;2.83;;;14.30;33.30;;;;;;4343292;33;20066;-38
2021/03/27 10:13:53;;;;;;;6.10;2.95;;;14.20;33.50;;;;;;4343623;33;20563;-38
2021/03/27 10:16:42;;;;;;;6.93;3.45;;;14.10;33.70;;;;;;4332456;33;20142;-36
2021/03/27 10:19:17;;;;;;;5.53;2.28;;;14.10;33.80;;;;;;4290881;33;20146;-38
2021/03/27 10:22:21;;;;;;;3.35;1.95;;;14.10;34.00;;;;;;4313030;33;20071;-39
2021/03/27 10:25:37;;;;;;;6.40;3.80;;;14.00;34.30;;;;;;4302417;33;20151;-39
2021/03/27 10:28:23;;;;;;;2.92;1.67;;;13.80;34.30;;;;;;4285183;33;20075;-39
2021/03/27 10:31:02;;;;;;;4.97;3.08;;;13.80;34.60;;;;;;4301503;33;20052;-38
2021/03/27 10:34:21;;;;;;;5.32;3.47;;;13.70;34.80;;;;;;4300724;33;20086;-40
2021/03/27 10:36:53;;;;;;;5.12;2.75;;;13.70;34.90;;;;;;4290027;33;20074;-37
2021/03/27 10:39:50;;;;;;;7.93;3.92;;;13.70;35.20;;;;;;4313568;33;20246;-39
2021/03/27 10:42:52;;;;;;;8.88;4.25;;;13.60;35.30;;;;;;4326309;33;20087;-39
2021/03/27 10:45:59;;;;;;;4.45;2.15;;;13.50;35.40;;;;;;4315272;33;20071;-40
2021/03/27 10:48:56;;;;;;;6.25;2.72;;;13.50;36.00;;;;;;4312450;33;20145;-38
2021/03/27 10:51:23;;;;;;;8.80;3.65;;;13.40;36.10;;;;;;4303333;33;20071;-38
2021/03/27 10:54:22;;;;;;;5.70;2.25;;;13.40;36.00;;;;;;4312703;33;20530;-39
2021/03/27 10:57:06;;;;;;;9.27;4.10;;;13.40;35.90;;;;;;4330392;33;20086;-39
2021/03/27 10:59:59;;;;;;;8.52;4.30;;;13.50;36.10;;;;;;4342927;33;20104;-39
2021/03/27 11:03:09;;;;;;;6.70;3.37;;;13.50;36.00;;;;;;4342611;33;20086;-38
2021/03/27 11:06:13;;;;;;;7.93;4.20;;;13.40;35.90;;;;;;4344240;32;20070;-38
2021/03/27 11:09:23;;;;;;;5.60;2.72;;;13.40;36.00;;;;;;4344241;32;20124;-38
2021/03/27 11:12:19;;;;;;;5.15;2.65;;;13.40;36.00;;;;;;4343588;32;20144;-38
2021/03/27 11:15:12;;;;;;;3.60;1.92;;;13.50;35.90;;;;;;4341294;33;20104;-38
2021/03/27 11:17:57;;;;;;;2.90;1.25;;;13.50;35.70;;;;;;4329561;33;20067;-38
2021/03/27 11:21:15;;;;;;;9.60;5.32;;;13.50;35.50;;;;;;4341449;33;20098;-38
2021/03/27 11:24:20;;;;;;;4.62;3.08;;;13.50;35.30;;;;;;4341425;33;20506;-38
2021/03/27 11:27:23;;;;;;;8.25;4.37;;;13.60;35.70;;;;;;4330705;33;20072;-38
2021/03/27 11:30:01;;;;;;;5.53;3.87;;;13.50;35.60;;;;;;4341322;33;20516;-39
2021/03/27 11:32:55;;;;;;;7.75;2.78;;;13.50;35.80;;;;;;4341661;33;20249;-38
2021/03/27 11:35:27;;;;;;;15.05;5.20;;;13.40;35.90;;;;;;4331039;32;20536;-40
2021/03/27 11:38:59;;;;;;;9.75;5.32;;;13.40;36.00;;;;;;4315148;33;20189;-38
2021/03/27 11:41:41;;;;;;;5.72;3.25;;;13.40;36.10;;;;;;4268250;33;20473;-39
2021/03/27 11:44:48;;;;;;;5.07;2.40;;;13.40;36.20;;;;;;4267861;33;20064;-39
2021/03/27 11:47:42;;;;;;;2.50;1.75;;;13.40;36.30;;;;;;4282828;33;20635;-38
2021/03/27 11:50:41;;;;;;;6.32;2.47;;;13.50;36.40;;;;;;4272560;33;20068;-39
2021/03/27 11:53:29;;;;;;;8.73;3.05;;;13.50;36.40;;;;;;4259865;33;20552;-38
2021/03/27 11:56:19;;;;;;;7.45;3.72;;;13.50;36.40;;;;;;4243581;33;20546;-38
2021/03/27 12:02:34;;;;;;;6.50;3.25;;;13.50;36.30;;;;;;4253775;33;20057;-38
2021/03/27 12:06:03;;;;;;;5.12;2.12;;;13.40;36.30;;;;;;4253880;33;20085;-37
2021/03/27 12:08:52;;;;;;;7.87;4.72;;;13.30;36.50;;;;;;4232341;33;20061;-38
2021/03/27 12:11:52;;;;;;;6.12;3.25;;;13.20;36.50;;;;;;4248888;33;20060;-37
2021/03/27 12:14:49;;;;;;;6.10;4.30;;;13.30;36.80;;;;;;4311657;33;20586;-39
2021/03/27 12:17:36;;;;;;;9.35;3.47;;;13.10;36.70;;;;;;4311953;33;20087;-39
2021/03/27 12:20:21;;;;;;;7.47;4.03;;;13.10;36.90;;;;;;4311129;33;20577;-39
2021/03/27 12:22:58;;;;;;;;;;;13.10;36.90;;;;;;4300803;33;20106;-39
2021/03/27 12:26:05;;;;;;;5.32;3.45;;;13.10;37.00;;;;;;4311416;33;19970;-39
2021/03/27 12:29:19;;;;;;;8.88;2.45;;;13.10;37.00;;;;;;4296428;33;20080;-38
2021/03/27 12:32:43;;;;;;;4.80;2.92;;;13.00;37.00;;;;;;4253808;33;20533;-38
2021/03/27 12:35:16;;;;;;;7.90;3.90;;;12.90;37.30;;;;;;4299995;33;20091;-40
2021/03/27 12:38:07;;;;;;;3.87;2.50;;;12.90;37.30;;;;;;4299294;33;20686;-39
2021/03/27 12:41:03;;;;;;;5.80;3.47;;;12.80;37.40;;;;;;4311212;33;20101;-40
2021/03/27 12:43:31;;;;;;;4.37;2.40;;;12.80;37.30;;;;;;4287626;33;20512;-39
2021/03/27 12:46:23;;;;;;;3.17;1.90;;;12.70;37.40;;;;;;4287458;33;20151;-38
2021/03/27 12:49:19;;;;;;;6.62;3.85;;;12.70;37.60;;;;;;4299837;33;20219;-39
2021/03/27 12:52:13;;;;;;;8.00;4.22;;;12.60;37.80;;;;;;4311467;33;20075;-38
2021/03/27 12:54:46;;;;;;;3.45;2.05;;;12.50;37.80;;;;;;4311359;33;20546;-44
2021/03/27 12:57:36;;;;;;;7.70;4.37;;;12.50;38.00;;;;;;4298825;33;20056;-39
2021/03/27 13:00:39;;;;;;;7.68;3.72;;;12.50;37.90;;;;;;4291416;33;20087;-38
2021/03/27 13:03:29;;;;;;;5.43;2.53;;;12.50;38.20;;;;;;4316891;33;20652;-39
2021/03/27 13:06:42;;;;;;;5.90;3.47;;;12.50;38.20;;;;;;4328193;33;20531;-38
2021/03/27 13:09:11;;;;;;;1.58;0.93;;;12.40;38.40;;;;;;4314792;33;20101;-38
2021/03/27 13:12:00;;;;;;;7.05;3.45;;;12.40;38.40;;;;;;4328546;33;20075;-39
2021/03/27 13:14:51;;;;;;;4.90;1.95;;;12.40;38.50;;;;;;4316650;33;20079;-39
2021/03/27 13:17:57;;;;;;;5.55;3.03;;;12.40;38.40;;;;;;4328472;33;20074;-39
2021/03/27 13:20:47;;;;;;;5.18;3.90;;;12.50;38.60;;;;;;4328782;33;20067;-40
2021/03/27 13:23:34;;;;;;;6.20;2.15;;;12.40;38.40;;;;;;4317387;33;20565;-39
2021/03/27 13:26:08;;;;;;;2.75;2.00;;;12.40;38.50;;;;;;4316486;33;20460;-39
2021/03/27 13:29:31;;;;;;;2.53;1.35;;;12.30;39.30;;;;;;4304464;33;20063;-38
2021/03/27 13:32:15;;;;;;;5.12;2.62;;;12.30;38.80;;;;;;4319258;33;20548;-39
2021/03/27 13:35:22;;;;;;;3.67;2.28;;;12.40;38.80;;;;;;4316193;33;20087;-39
2021/03/27 13:38:02;;;;;;;2.97;1.55;;;12.30;38.70;;;;;;4347414;32;20095;-38
2021/03/27 13:40:33;;;;;;;3.50;1.83;;;12.40;38.80;;;;;;4319871;33;20063;-39
2021/03/27 13:43:21;;;;;;;5.10;1.33;;;12.40;38.80;;;;;;4289730;33;20484;-38
2021/03/27 13:45:57;;;;;;;4.12;1.30;;;12.40;38.80;;;;;;4313398;33;20183;-38
2021/03/27 13:48:30;;;;;;;2.60;1.67;;;12.40;38.70;;;;;;4313667;33;20071;-39
2021/03/27 13:51:23;;;;;;;1.95;1.12;;;12.40;39.00;;;;;;4313889;33;20076;-38
2021/03/27 13:55:00;;;;;;;1.87;1.27;;;12.50;38.80;;;;;;4313398;33;20573;-39
2021/03/27 13:57:29;;;;;;;3.17;1.75;;;12.50;38.90;;;;;;4276569;33;20079;-38
2021/03/27 14:00:14;;;;;;;3.78;1.17;;;12.40;38.80;;;;;;4286917;33;20173;-38
2021/03/27 14:03:33;;;;;;;1.95;1.10;;;12.40;38.80;;;;;;4298742;33;20175;-37
2021/03/27 14:06:27;;;;;;;2.70;1.37;;;12.40;38.90;;;;;;4274049;33;20068;-39
2021/03/27 14:09:30;;;;;;;3.45;1.35;;;12.40;38.80;;;;;;4276931;33;20516;-39
2021/03/27 14:12:32;;;;;;;3.28;1.02;;;12.30;38.80;;;;;;4308308;33;20083;-38
2021/03/27 14:15:04;;;;;;;3.12;2.03;;;12.30;39.00;;;;;;4300977;33;20163;-39
2021/03/27 14:17:49;;;;;;;3.62;2.10;;;12.20;39.10;;;;;;4312942;33;20157;-38
2021/03/27 14:20:29;;;;;;;3.75;1.55;;;12.20;39.10;;;;;;4306778;33;20087;-38
2021/03/27 14:23:22;;;;;;;9.80;1.80;;;12.20;39.10;;;;;;4316903;33;20511;-38
2021/03/27 14:25:57;;;;;;;4.35;1.73;;;12.10;39.10;;;;;;4315476;33;20095;-39
2021/03/27 14:28:52;;;;;;;6.62;3.62;;;12.00;39.30;;;;;;4353454;32;20051;-39
2021/03/27 14:31:45;;;;;;;4.53;2.45;;;11.90;39.50;;;;;;4358151;32;20437;-39
2021/03/27 14:34:35;;;;;;;4.25;2.25;;;11.90;39.80;;;;;;4331698;33;20146;-39
2021/03/27 14:37:29;;;;;;;2.87;1.58;;;11.80;40.00;;;;;;4316030;33;20066;-39
2021/03/27 14:40:55;;;;;;;4.82;2.55;;;11.80;40.20;;;;;;4323072;33;20074;-39
2021/03/27 14:43:46;;;;;;;5.95;2.00;;;11.70;40.20;;;;;;4317036;33;20512;-39
2021/03/27 14:46:24;;;;;;;4.78;2.12;;;11.50;40.30;;;;;;4314997;33;20071;-38
2021/03/27 14:49:42;;;;;;;4.25;1.80;;;11.30;40.70;;;;;;4312837;33;20067;-40
2021/03/27 14:52:29;;;;;;;3.85;1.92;;;11.40;40.90;;;;;;4298596;33;20062;-38
2021/03/27 14:55:13;;;;;;;6.90;2.80;;;11.20;41.20;;;;;;4300670;33;20126;-38
2021/03/27 14:57:53;;;;;;;6.25;2.83;;;11.20;41.40;;;;;;4300888;33;20180;-38
2021/03/27 15:00:20;;;;;;;4.37;2.90;;;11.10;41.60;;;;;;4300200;33;20184;-38